createdAt,value
2023-02-28T00:03:06.101Z,28.37
2023-02-28T00:08:28.869Z,30.73
2023-02-28T00:13:54.302Z,28.23
2023-02-28T00:19:16.729Z,28.30
2023-02-28T00:24:39.038Z,28.07
2023-02-28T00:30:02.361Z,33.35
2023-02-28T00:35:26.436Z,33.43
2023-02-28T00:40:49.225Z,32.83
2023-02-28T00:46:12.003Z,32.43
2023-02-28T00:51:34.316Z,29.63
2023-02-28T00:56:56.588Z,36.40
2023-02-28T01:02:19.856Z,34.57
2023-02-28T01:07:42.897Z,35.97
2023-02-28T01:13:05.203Z,37.30
2023-02-28T01:18:28.333Z,33.47
2023-02-28T01:23:50.644Z,38.60
2023-02-28T01:29:13.605Z,36.73
2023-02-28T01:34:35.877Z,35.27
2023-02-28T01:39:58.141Z,38.40
2023-02-28T01:45:36.437Z,37.03
2023-02-28T01:51:02.705Z,38.63
2023-02-28T01:56:30.178Z,40.00
2023-02-28T02:01:53.027Z,39.67
2023-02-28T02:07:15.453Z,38.40
2023-02-28T02:13:16.956Z,35.17
2023-02-28T02:18:51.755Z,38.47
2023-02-28T02:24:42.670Z,38.70
2023-02-28T02:30:24.702Z,39.07
2023-02-28T02:36:13.236Z,37.37
2023-02-28T02:41:54.731Z,40.27
2023-02-28T02:47:27.179Z,37.47
2023-02-28T02:52:54.264Z,43.13
2023-02-28T02:58:23.863Z,37.50
2023-02-28T03:03:48.051Z,41.23
2023-02-28T03:09:10.633Z,39.10
2023-02-28T03:15:01.484Z,36.27
2023-02-28T03:20:36.970Z,40.33
2023-02-28T03:26:22.508Z,47.80
2023-02-28T03:32:01.825Z,35.53
2023-02-28T03:37:28.487Z,42.53
2023-02-28T03:42:54.400Z,39.93
2023-02-28T03:48:24.436Z,44.73
2023-02-28T03:53:54.366Z,34.80
2023-02-28T03:59:40.104Z,40.70
2023-02-28T04:05:02.337Z,41.03
2023-02-28T04:10:25.472Z,39.08
2023-02-28T04:15:47.674Z,39.83
2023-02-28T04:21:11.803Z,38.67
2023-02-28T04:26:38.697Z,37.47
2023-02-28T04:32:01.940Z,40.23
2023-02-28T04:37:26.417Z,37.63
2023-02-28T04:42:48.829Z,38.00
2023-02-28T04:48:11.130Z,33.73
2023-02-28T04:53:33.688Z,39.07
2023-02-28T04:58:56.057Z,32.67
2023-02-28T05:04:19.526Z,32.07
2023-02-28T05:09:41.854Z,36.30
2023-02-28T05:15:04.075Z,35.70
2023-02-28T05:20:27.025Z,37.33
2023-02-28T05:25:49.251Z,31.93
2023-02-28T05:31:12.046Z,35.37
2023-02-28T05:36:34.497Z,31.07
2023-02-28T05:41:57.462Z,29.17
2023-02-28T05:47:19.686Z,31.63
2023-02-28T05:52:42.778Z,28.05
2023-02-28T05:58:05.133Z,35.40
2023-02-28T06:03:27.610Z,31.57
2023-02-28T06:08:49.965Z,30.83
2023-02-28T06:14:23.524Z,30.77
2023-02-28T06:19:46.001Z,29.63
2023-02-28T06:25:08.520Z,32.90
2023-02-28T06:36:05.608Z,28.77
2023-02-28T06:41:32.714Z,28.83
2023-02-28T06:46:54.768Z,33.67
2023-02-28T06:52:17.033Z,29.83
2023-02-28T06:57:44.239Z,39.83
2023-02-28T07:03:06.943Z,35.17
2023-02-28T07:08:30.030Z,36.67
2023-02-28T07:13:52.281Z,38.27
2023-02-28T07:19:14.901Z,40.87
2023-02-28T07:24:37.622Z,43.30
2023-02-28T07:30:02.058Z,44.03
2023-02-28T07:35:25.788Z,47.00
2023-02-28T07:40:49.736Z,44.50
2023-02-28T07:46:17.202Z,43.80
2023-02-28T07:51:40.799Z,48.10
2023-02-28T07:57:03.559Z,41.53
2023-02-28T08:02:29.737Z,41.43
2023-02-28T08:07:51.969Z,40.30
2023-02-28T08:13:14.612Z,40.40
2023-02-28T08:18:37.434Z,52.03
2023-02-28T08:24:03.646Z,52.97
2023-02-28T08:29:25.863Z,48.73
2023-02-28T08:34:48.293Z,45.93
2023-02-28T08:40:10.787Z,39.87
2023-02-28T08:45:37.188Z,41.43
2023-02-28T08:51:07.565Z,46.00
2023-02-28T08:56:30.592Z,36.10
2023-02-28T09:01:52.765Z,36.17
2023-02-28T09:07:17.407Z,42.33
2023-02-28T09:12:43.218Z,30.67
2023-02-28T09:18:05.528Z,30.63
2023-02-28T09:23:29.397Z,27.27
2023-02-28T09:28:52.577Z,27.13
2023-02-28T09:34:18.953Z,23.60
2023-02-28T09:39:42.215Z,28.02
2023-02-28T09:45:07.204Z,24.77
2023-02-28T09:50:43.388Z,22.97
2023-02-28T09:56:27.150Z,26.33
2023-02-28T10:02:15.143Z,27.93
2023-02-28T10:07:50.846Z,21.80
2023-02-28T10:13:21.888Z,22.87
2023-02-28T10:18:49.073Z,20.97
2023-02-28T10:24:22.086Z,20.40
2023-02-28T10:29:45.842Z,18.03
2023-02-28T10:35:31.226Z,13.37
2023-02-28T10:40:54.674Z,13.87
2023-02-28T10:46:32.743Z,11.20
2023-02-28T10:52:02.094Z,11.22
2023-02-28T10:57:30.857Z,13.40
2023-02-28T11:02:54.929Z,18.37
2023-02-28T11:08:21.783Z,14.30
2023-02-28T11:13:52.129Z,14.60
2023-02-28T11:19:17.504Z,14.97
2023-02-28T11:24:49.837Z,11.15
2023-02-28T11:30:13.228Z,13.38
2023-02-28T11:35:46.329Z,13.27
2023-02-28T11:41:25.421Z,12.65
2023-02-28T11:46:58.121Z,14.00
2023-02-28T11:52:49.655Z,14.47
2023-02-28T11:58:25.648Z,14.38
2023-02-28T12:03:58.720Z,15.37
2023-02-28T12:09:38.339Z,13.30
2023-02-28T12:15:43.182Z,15.17
2023-02-28T12:21:43.390Z,12.25
2023-02-28T12:27:09.012Z,13.90
2023-02-28T12:32:54.590Z,10.40
2023-02-28T12:38:27.535Z,8.83
2023-02-28T12:43:57.564Z,8.05
2023-02-28T12:49:39.978Z,10.48
2023-02-28T12:55:10.620Z,8.05
2023-02-28T13:00:43.538Z,9.03
2023-02-28T13:06:33.757Z,8.33
2023-02-28T13:12:06.332Z,7.90
2023-02-28T13:17:35.370Z,7.78
2023-02-28T13:23:06.980Z,6.83
2023-02-28T13:28:49.802Z,7.42
2023-02-28T13:34:22.606Z,9.90
2023-02-28T13:40:01.240Z,10.25
2023-02-28T13:45:35.993Z,6.85
2023-02-28T13:51:00.714Z,6.83
2023-02-28T13:56:46.164Z,8.45
2023-02-28T14:02:29.735Z,5.92
2023-02-28T14:13:58.490Z,6.87
2023-02-28T14:19:31.019Z,6.72
2023-02-28T14:25:24.757Z,7.22
2023-02-28T14:31:17.704Z,6.97
2023-02-28T14:36:44.427Z,6.53
2023-02-28T14:42:08.959Z,9.13
2023-02-28T14:47:34.851Z,7.87
2023-02-28T14:53:00.197Z,5.87
2023-02-28T14:58:41.191Z,9.15
2023-02-28T15:04:16.410Z,7.83
2023-02-28T15:09:38.956Z,8.55
2023-02-28T15:15:03.588Z,8.90
2023-02-28T15:20:29.638Z,9.73
2023-02-28T15:25:53.913Z,7.62
2023-02-28T15:31:36.181Z,8.40
2023-02-28T15:36:55.264Z,8.28
2023-02-28T15:42:38.863Z,9.00
2023-02-28T15:48:13.735Z,9.83
2023-02-28T15:53:32.244Z,8.43
2023-02-28T15:58:55.624Z,12.57
2023-02-28T16:04:33.454Z,8.93
2023-02-28T16:09:55.924Z,6.67
2023-02-28T16:15:27.529Z,8.57
2023-02-28T16:20:51.232Z,10.40
2023-02-28T16:26:13.994Z,9.90
2023-02-28T16:31:36.695Z,9.05
2023-02-28T16:37:02.309Z,13.40
2023-02-28T16:42:33.851Z,9.77
2023-02-28T16:47:56.286Z,9.23
2023-02-28T16:53:19.104Z,12.27
2023-02-28T16:58:42.212Z,11.55
2023-02-28T17:04:04.771Z,15.00
2023-02-28T17:09:41.981Z,9.73
2023-02-28T17:14:58.587Z,8.77
2023-02-28T17:20:25.284Z,9.05
2023-02-28T17:25:49.594Z,10.85
2023-02-28T17:31:12.123Z,9.80
2023-02-28T17:36:38.187Z,9.75
2023-02-28T17:42:01.950Z,12.47
2023-02-28T17:47:26.337Z,10.33
2023-02-28T17:52:48.922Z,12.30
2023-02-28T17:58:11.777Z,26.87
2023-02-28T18:03:34.740Z,22.65
2023-02-28T18:08:57.831Z,31.62
2023-02-28T18:14:22.066Z,32.73
2023-02-28T18:19:45.425Z,24.97
2023-02-28T18:25:09.502Z,30.67
2023-02-28T18:30:35.302Z,30.17
2023-02-28T18:35:59.942Z,28.70
2023-02-28T18:41:26.595Z,34.50
2023-02-28T18:46:49.677Z,30.80
2023-02-28T18:52:12.749Z,42.55
2023-02-28T18:57:36.116Z,63.23
2023-02-28T19:02:59.076Z,79.07
2023-02-28T19:08:23.343Z,57.00
2023-02-28T19:13:47.226Z,47.95
2023-02-28T19:19:10.719Z,51.93
2023-02-28T19:24:33.836Z,53.40
2023-02-28T19:29:59.724Z,60.97
2023-02-28T19:35:24.539Z,54.73
2023-02-28T19:40:49.158Z,64.97
2023-02-28T19:46:13.725Z,65.70
2023-02-28T19:51:38.538Z,67.90
2023-02-28T19:57:02.324Z,70.37
2023-02-28T20:02:31.851Z,74.73
2023-02-28T20:07:56.222Z,83.37
2023-02-28T20:13:25.745Z,74.83
2023-02-28T20:18:47.221Z,82.42
2023-02-28T20:24:11.828Z,75.45
2023-02-28T20:29:34.935Z,78.47
2023-02-28T20:34:59.608Z,76.50
2023-02-28T20:40:22.862Z,79.27
2023-02-28T20:45:47.445Z,81.90
2023-02-28T20:51:13.197Z,75.35
2023-02-28T20:56:39.514Z,75.00
2023-02-28T21:02:04.403Z,76.92
2023-02-28T21:07:29.321Z,78.73
2023-02-28T21:12:56.133Z,91.97
2023-02-28T21:18:20.467Z,87.87
2023-02-28T21:23:46.584Z,88.50
2023-02-28T21:29:16.653Z,87.88
2023-02-28T21:34:41.975Z,99.23
2023-02-28T21:40:06.315Z,96.67
2023-02-28T21:45:31.596Z,101.13
2023-02-28T21:51:07.586Z,97.43
2023-02-28T21:56:46.561Z,95.93
2023-02-28T22:02:11.040Z,89.93
2023-02-28T22:07:35.368Z,86.73
2023-02-28T22:12:59.463Z,96.23
2023-02-28T22:18:24.232Z,95.57
2023-02-28T22:23:49.843Z,113.30
2023-02-28T22:29:14.481Z,123.87
2023-02-28T22:34:38.868Z,126.13
2023-02-28T22:40:03.594Z,113.73
2023-02-28T22:45:27.932Z,109.50
2023-02-28T22:50:52.741Z,104.03
2023-02-28T22:56:18.079Z,100.37
2023-02-28T23:01:45.246Z,92.60
2023-02-28T23:07:10.642Z,100.00
2023-02-28T23:12:34.323Z,88.50
2023-02-28T23:17:59.399Z,97.50
2023-02-28T23:23:24.137Z,87.70
2023-02-28T23:28:48.767Z,97.10
2023-02-28T23:34:13.564Z,97.20
2023-02-28T23:39:38.820Z,98.67
2023-02-28T23:45:03.528Z,98.20
2023-02-28T23:50:27.391Z,95.38
2023-02-28T23:55:55.995Z,94.62
